createdAt,value
2023-03-21T00:00:40.830Z,40.08
2023-03-21T00:03:09.009Z,37.10
2023-03-21T00:05:51.650Z,40.55
2023-03-21T00:08:23.906Z,38.15
2023-03-21T00:11:05.878Z,35.95
2023-03-21T00:13:38.354Z,37.53
2023-03-21T00:16:17.772Z,37.97
2023-03-21T00:18:55.017Z,36.28
2023-03-21T00:24:15.730Z,44.55
2023-03-21T00:26:42.936Z,36.10
2023-03-21T00:29:10.130Z,32.63
2023-03-21T00:31:37.745Z,33.38
2023-03-21T00:34:05.236Z,36.67
2023-03-21T00:36:32.785Z,31.35
2023-03-21T00:39:00.827Z,33.33
2023-03-21T00:41:41.602Z,35.22
2023-03-21T00:44:15.547Z,33.42
2023-03-21T00:46:54.400Z,33.53
2023-03-21T00:49:24.508Z,33.15
2023-03-21T00:51:53.303Z,31.95
2023-03-21T00:54:20.618Z,35.40
2023-03-21T00:56:47.834Z,33.17
2023-03-21T00:59:15.381Z,36.10
2023-03-21T01:01:46.497Z,35.95
2023-03-21T01:04:16.462Z,33.83
2023-03-21T01:06:45.088Z,35.38
2023-03-21T01:09:18.703Z,35.03
2023-03-21T01:11:46.345Z,34.53
2023-03-21T01:14:23.060Z,31.58
2023-03-21T01:16:53.362Z,34.80
2023-03-21T01:19:37.627Z,33.78
2023-03-21T01:22:12.288Z,33.25
2023-03-21T01:24:50.236Z,35.67
2023-03-21T01:27:20.321Z,34.33
2023-03-21T01:29:49.258Z,34.70
2023-03-21T01:32:16.722Z,35.03
2023-03-21T01:34:44.057Z,36.55
2023-03-21T01:37:11.357Z,36.25
2023-03-21T01:39:45.957Z,34.58
2023-03-21T01:42:14.247Z,34.67
2023-03-21T01:45:00.544Z,32.97
2023-03-21T01:47:38.932Z,34.58
2023-03-21T01:50:22.174Z,35.55
2023-03-21T01:52:58.375Z,34.72
2023-03-21T01:55:32.180Z,35.10
2023-03-21T01:58:12.642Z,34.30
2023-03-21T02:01:03.056Z,33.35
2023-03-21T02:03:52.448Z,36.92
2023-03-21T02:06:44.697Z,34.55
2023-03-21T02:09:34.764Z,32.17
2023-03-21T02:12:04.232Z,31.48
2023-03-21T02:14:36.501Z,31.73
2023-03-21T02:17:54.526Z,34.95
2023-03-21T02:21:58.858Z,36.13
2023-03-21T02:25:01.525Z,31.35
2023-03-21T02:27:46.964Z,32.05
2023-03-21T02:31:07.139Z,32.33
2023-03-21T02:33:37.147Z,33.95
2023-03-21T02:36:34.074Z,32.38
2023-03-21T02:39:24.327Z,34.00
2023-03-21T02:42:21.282Z,32.72
2023-03-21T02:45:35.103Z,32.67
2023-03-21T02:48:27.844Z,32.40
2023-03-21T02:51:01.039Z,30.85
2023-03-21T02:53:36.992Z,33.97
2023-03-21T02:56:10.661Z,34.22
2023-03-21T02:58:43.807Z,33.13
2023-03-21T03:01:11.174Z,36.17
2023-03-21T03:03:43.890Z,35.63
2023-03-21T03:06:27.617Z,33.85
2023-03-21T03:09:23.257Z,30.50
2023-03-21T03:12:23.046Z,33.83
2023-03-21T03:15:23.496Z,34.15
2023-03-21T03:18:52.802Z,34.45
2023-03-21T03:21:51.985Z,32.53
2023-03-21T03:24:46.082Z,34.75
2023-03-21T03:27:29.642Z,36.88
2023-03-21T03:30:02.142Z,35.75
2023-03-21T03:32:44.854Z,39.10
2023-03-21T03:35:18.080Z,37.95
2023-03-21T03:37:57.209Z,37.88
2023-03-21T03:40:35.922Z,37.17
2023-03-21T03:43:32.948Z,36.85
2023-03-21T03:46:16.796Z,33.10
2023-03-21T03:48:55.335Z,35.95
2023-03-21T03:51:53.092Z,37.42
2023-03-21T03:54:44.160Z,34.08
2023-03-21T03:57:13.778Z,35.88
2023-03-21T03:59:45.178Z,38.63
2023-03-21T04:02:24.576Z,35.33
2023-03-21T04:04:53.228Z,35.70
2023-03-21T04:07:22.271Z,37.75
2023-03-21T04:09:51.875Z,33.42
2023-03-21T04:12:21.048Z,38.17
2023-03-21T04:15:16.834Z,38.45
2023-03-21T04:17:49.073Z,36.50
2023-03-21T04:20:26.801Z,38.88
2023-03-21T04:23:01.953Z,35.15
2023-03-21T04:25:33.894Z,37.05
2023-03-21T04:28:03.293Z,37.08
2023-03-21T04:30:39.807Z,33.05
2023-03-21T04:33:13.567Z,37.42
2023-03-21T04:35:45.955Z,36.80
2023-03-21T04:38:14.568Z,36.03
2023-03-21T04:40:41.864Z,35.95
2023-03-21T04:43:09.126Z,34.13
2023-03-21T04:45:39.551Z,36.08
2023-03-21T04:48:06.831Z,35.55
2023-03-21T04:50:34.087Z,36.40
2023-03-21T04:53:01.235Z,35.35
2023-03-21T04:55:29.372Z,35.90
2023-03-21T04:57:56.573Z,38.25
2023-03-21T05:00:25.680Z,36.65
2023-03-21T05:02:52.914Z,34.95
2023-03-21T05:05:21.527Z,36.65
2023-03-21T05:07:48.756Z,35.08
2023-03-21T05:10:16.371Z,33.30
2023-03-21T05:12:43.985Z,37.95
2023-03-21T05:15:11.444Z,35.78
2023-03-21T05:17:38.821Z,35.08
2023-03-21T05:20:09.293Z,36.85
2023-03-21T05:22:40.424Z,37.05
2023-03-21T05:25:11.632Z,37.67
2023-03-21T05:27:57.464Z,36.42
2023-03-21T05:30:28.862Z,36.95
2023-03-21T05:33:00.296Z,36.63
2023-03-21T05:35:28.165Z,33.85
2023-03-21T05:37:58.175Z,40.65
2023-03-21T05:40:28.271Z,34.72
2023-03-21T05:42:58.183Z,33.97
2023-03-21T05:45:26.202Z,34.95
2023-03-21T05:47:54.157Z,32.45
2023-03-21T05:50:25.384Z,33.80
2023-03-21T05:53:07.063Z,35.42
2023-03-21T05:55:34.379Z,30.50
2023-03-21T05:58:01.896Z,34.92
2023-03-21T06:00:31.320Z,34.47
2023-03-21T06:03:21.436Z,31.08
2023-03-21T06:06:17.633Z,35.20
2023-03-21T06:08:54.540Z,34.80
2023-03-21T06:11:48.558Z,34.67
2023-03-21T06:14:26.074Z,35.97
2023-03-21T06:17:12.093Z,36.78
2023-03-21T06:19:46.312Z,36.42
2023-03-21T06:22:29.499Z,36.53
2023-03-21T06:24:56.756Z,35.70
2023-03-21T06:27:24.267Z,35.83
2023-03-21T06:29:54.514Z,35.78
2023-03-21T06:32:22.649Z,36.05
2023-03-21T06:34:54.950Z,38.53
2023-03-21T06:37:22.300Z,37.85
2023-03-21T06:39:49.664Z,38.67
2023-03-21T06:42:17.016Z,37.42
2023-03-21T06:44:44.217Z,37.65
2023-03-21T06:47:14.864Z,36.30
2023-03-21T06:49:44.610Z,40.00
2023-03-21T06:52:13.139Z,36.22
2023-03-21T06:54:41.133Z,41.72
2023-03-21T06:57:13.509Z,42.75
2023-03-21T06:59:43.394Z,42.72
2023-03-21T07:02:20.003Z,44.17
2023-03-21T07:05:06.725Z,42.90
2023-03-21T07:10:01.210Z,39.20
2023-03-21T07:12:34.221Z,41.05
2023-03-21T07:15:17.757Z,40.85
2023-03-21T07:17:46.670Z,44.83
2023-03-21T07:20:14.171Z,42.45
2023-03-21T07:22:41.481Z,45.70
2023-03-21T07:25:09.783Z,42.30
2023-03-21T07:27:41.535Z,43.15
2023-03-21T07:30:11.307Z,41.15
2023-03-21T07:32:39.350Z,46.72
2023-03-21T07:35:14.608Z,44.45
2023-03-21T07:37:43.002Z,43.60
2023-03-21T07:40:14.076Z,40.28
2023-03-21T07:42:41.862Z,41.72
2023-03-21T07:45:15.562Z,45.72
2023-03-21T07:47:43.279Z,46.35
2023-03-21T07:50:10.973Z,48.40
2023-03-21T07:52:38.934Z,46.03
2023-03-21T07:55:06.954Z,41.33
2023-03-21T07:57:34.709Z,43.35
2023-03-21T08:00:02.055Z,46.70
2023-03-21T08:02:29.374Z,43.22
2023-03-21T08:04:56.583Z,45.35
2023-03-21T08:07:23.777Z,43.83
2023-03-21T08:09:51.000Z,43.95
2023-03-21T08:12:18.161Z,44.85
2023-03-21T08:14:45.375Z,42.10
2023-03-21T08:17:12.549Z,44.67
2023-03-21T08:19:39.707Z,43.95
2023-03-21T08:22:06.904Z,43.40
2023-03-21T08:24:34.150Z,40.67
2023-03-21T08:27:02.203Z,41.08
2023-03-21T08:29:29.506Z,41.53
2023-03-21T08:31:58.002Z,41.60
2023-03-21T08:36:54.485Z,41.05
2023-03-21T08:39:21.933Z,45.03
2023-03-21T08:41:49.163Z,41.92
2023-03-21T08:44:17.018Z,41.95
2023-03-21T08:46:44.269Z,42.15
2023-03-21T08:49:12.680Z,43.22
2023-03-21T08:51:41.132Z,46.10
2023-03-21T08:56:37.383Z,41.90
2023-03-21T08:59:04.743Z,43.63
2023-03-21T09:01:32.626Z,43.42
2023-03-21T09:03:59.846Z,43.75
2023-03-21T09:06:27.524Z,41.22
2023-03-21T09:08:54.695Z,40.42
2023-03-21T09:11:21.857Z,41.60
2023-03-21T09:13:49.160Z,44.22
2023-03-21T09:16:16.444Z,46.08
2023-03-21T09:18:50.530Z,46.75
2023-03-21T09:21:19.965Z,43.00
2023-03-21T09:23:48.706Z,39.08
2023-03-21T09:26:17.138Z,46.25
2023-03-21T09:28:44.484Z,44.90
2023-03-21T09:31:14.586Z,44.30
2023-03-21T09:33:43.236Z,46.15
2023-03-21T09:36:14.025Z,43.28
2023-03-21T09:38:46.697Z,47.08
2023-03-21T09:41:34.987Z,46.30
2023-03-21T09:44:22.677Z,34.33
2023-03-21T09:47:25.209Z,44.40
2023-03-21T09:50:13.760Z,47.10
2023-03-21T09:53:18.626Z,47.30
2023-03-21T09:55:47.020Z,44.25
2023-03-21T09:58:36.522Z,47.00
2023-03-21T10:01:34.467Z,43.17
2023-03-21T10:04:07.192Z,43.55
2023-03-21T10:06:41.188Z,44.33
2023-03-21T10:09:22.853Z,38.90
2023-03-21T10:12:07.356Z,47.58
2023-03-21T10:14:44.452Z,46.40
2023-03-21T10:17:41.201Z,47.70
2023-03-21T10:20:26.799Z,43.30
2023-03-21T10:22:57.042Z,42.15
2023-03-21T10:25:39.715Z,42.15
2023-03-21T10:28:16.853Z,44.05
2023-03-21T10:30:49.379Z,46.50
2023-03-21T10:33:32.853Z,44.38
2023-03-21T10:36:09.439Z,47.42
2023-03-21T10:38:51.428Z,43.40
2023-03-21T10:41:21.150Z,39.50
2023-03-21T10:44:17.378Z,40.75
2023-03-21T10:47:09.565Z,42.97
2023-03-21T10:50:05.880Z,36.97
2023-03-21T10:52:30.372Z,44.03
2023-03-21T10:55:31.204Z,41.60
2023-03-21T10:58:18.707Z,40.15
2023-03-21T11:00:48.042Z,40.00
2023-03-21T11:03:39.261Z,41.35
2023-03-21T11:06:28.734Z,38.05
2023-03-21T11:09:23.162Z,30.38
2023-03-21T11:11:53.615Z,33.28
2023-03-21T11:14:41.794Z,28.92
2023-03-21T11:17:17.926Z,31.25
2023-03-21T11:20:09.166Z,29.08
2023-03-21T11:22:43.452Z,27.40
2023-03-21T11:27:56.254Z,32.80
2023-03-21T11:30:28.157Z,31.52
2023-03-21T11:33:03.311Z,36.25
2023-03-21T11:35:39.623Z,36.78
2023-03-21T11:38:27.613Z,33.30
2023-03-21T11:41:02.515Z,39.60
2023-03-21T11:43:40.379Z,33.88
2023-03-21T11:46:13.759Z,36.90
2023-03-21T11:48:45.205Z,32.95
2023-03-21T11:51:37.141Z,33.08
2023-03-21T11:54:42.060Z,31.42
2023-03-21T11:57:45.408Z,33.55
2023-03-21T12:00:34.792Z,34.50
2023-03-21T12:03:32.815Z,32.72
2023-03-21T12:06:40.596Z,26.90
2023-03-21T12:10:27.561Z,27.23
2023-03-21T12:13:26.872Z,29.70
2023-03-21T12:17:05.493Z,28.20
2023-03-21T12:20:12.759Z,26.35
2023-03-21T12:23:24.417Z,27.88
2023-03-21T12:26:19.568Z,24.55
2023-03-21T12:29:07.731Z,21.65
2023-03-21T12:32:15.823Z,23.73
2023-03-21T12:35:19.595Z,25.23
2023-03-21T12:38:38.160Z,26.77
2023-03-21T12:41:43.915Z,22.88
2023-03-21T12:44:17.233Z,23.88
2023-03-21T12:47:09.206Z,23.50
2023-03-21T12:49:56.259Z,22.10
2023-03-21T12:52:35.535Z,22.67
2023-03-21T12:55:32.574Z,23.70
2023-03-21T12:58:16.616Z,20.80
2023-03-21T13:00:56.690Z,21.85
2023-03-21T13:03:47.072Z,23.55
2023-03-21T13:06:18.332Z,20.73
2023-03-21T13:09:10.508Z,18.75
2023-03-21T13:11:38.260Z,19.35
2023-03-21T13:14:26.652Z,20.35
2023-03-21T13:17:04.332Z,20.48
2023-03-21T13:19:58.390Z,19.60
2023-03-21T13:22:31.104Z,18.67
2023-03-21T13:25:15.654Z,21.05
2023-03-21T13:27:46.077Z,20.70
2023-03-21T13:30:26.407Z,17.88
2023-03-21T13:35:42.902Z,19.98
2023-03-21T13:38:28.538Z,20.92
2023-03-21T13:41:17.891Z,18.88
2023-03-21T13:44:03.107Z,19.75
2023-03-21T13:46:34.168Z,18.77
2023-03-21T13:49:10.599Z,18.45
2023-03-21T13:51:43.487Z,16.02
2023-03-21T13:54:44.683Z,16.50
2023-03-21T13:57:32.021Z,19.10
2023-03-21T14:00:24.461Z,17.98
2023-03-21T14:03:06.432Z,18.88
2023-03-21T14:05:35.406Z,19.27
2023-03-21T14:08:24.727Z,17.52
2023-03-21T14:11:06.608Z,20.50
2023-03-21T14:13:38.003Z,20.45
2023-03-21T14:16:17.010Z,17.73
2023-03-21T14:18:54.393Z,19.02
2023-03-21T14:21:29.513Z,16.88
2023-03-21T14:24:07.353Z,19.67
2023-03-21T14:26:41.606Z,19.35
2023-03-21T14:31:59.832Z,17.13
2023-03-21T14:34:32.019Z,18.45
2023-03-21T14:36:59.474Z,18.27
2023-03-21T14:39:34.114Z,18.42
2023-03-21T14:42:14.855Z,19.40
2023-03-21T14:45:00.874Z,19.98
2023-03-21T14:47:36.665Z,19.08
2023-03-21T14:50:04.382Z,18.52
2023-03-21T14:52:34.366Z,19.00
2023-03-21T14:55:13.928Z,19.38
2023-03-21T14:57:41.598Z,18.55
2023-03-21T15:00:23.408Z,17.42
2023-03-21T15:02:52.782Z,18.63
2023-03-21T15:05:37.743Z,19.33
2023-03-21T15:08:17.315Z,18.92
2023-03-21T15:11:07.149Z,19.10
2023-03-21T15:13:52.368Z,19.75
2023-03-21T15:16:20.858Z,19.02
2023-03-21T15:18:49.852Z,20.25
2023-03-21T15:21:35.161Z,19.10
2023-03-21T15:24:15.770Z,19.88
2023-03-21T15:26:49.336Z,19.60
2023-03-21T15:29:18.104Z,20.48
2023-03-21T15:31:48.638Z,20.40
2023-03-21T15:34:28.352Z,20.13
2023-03-21T15:37:13.298Z,20.15
2023-03-21T15:39:40.633Z,19.73
2023-03-21T15:42:29.749Z,19.80
2023-03-21T15:45:01.980Z,20.70
2023-03-21T15:47:49.445Z,17.98
2023-03-21T15:50:43.251Z,19.65
2023-03-21T15:53:20.348Z,20.10
2023-03-21T15:55:52.600Z,19.50
2023-03-21T15:58:28.110Z,18.45
2023-03-21T16:01:01.896Z,18.85
2023-03-21T16:03:47.947Z,19.90
2023-03-21T16:06:17.103Z,18.08
2023-03-21T16:08:54.280Z,20.70
2023-03-21T16:11:28.301Z,21.00
2023-03-21T16:13:56.780Z,20.40
2023-03-21T16:16:30.558Z,19.42
2023-03-21T16:19:00.343Z,21.73
2023-03-21T16:21:34.059Z,22.10
2023-03-21T16:24:02.133Z,21.60
2023-03-21T16:26:43.519Z,21.98
2023-03-21T16:29:14.179Z,22.58
2023-03-21T16:31:42.558Z,23.38
2023-03-21T16:34:10.701Z,20.63
2023-03-21T16:39:21.923Z,21.63
2023-03-21T16:41:50.867Z,22.00
2023-03-21T16:44:19.983Z,20.42
2023-03-21T16:46:47.325Z,19.30
2023-03-21T16:49:24.838Z,19.25
2023-03-21T16:51:54.820Z,19.88
2023-03-21T16:54:22.311Z,19.50
2023-03-21T16:56:54.049Z,19.08
2023-03-21T16:59:21.823Z,21.30
2023-03-21T17:01:49.728Z,19.10
2023-03-21T17:04:18.926Z,19.83
2023-03-21T17:06:52.666Z,16.30
2023-03-21T17:09:27.148Z,19.05
2023-03-21T17:11:54.433Z,20.27
2023-03-21T17:14:22.165Z,19.45
2023-03-21T17:16:49.503Z,19.83
2023-03-21T17:19:27.307Z,19.50
2023-03-21T17:21:55.250Z,18.98
2023-03-21T17:24:23.763Z,19.40
2023-03-21T17:26:50.920Z,19.60
2023-03-21T17:29:18.095Z,17.65
2023-03-21T17:31:47.425Z,18.70
2023-03-21T17:34:15.802Z,17.63
2023-03-21T17:36:46.216Z,21.52
2023-03-21T17:39:24.928Z,19.55
2023-03-21T17:41:53.314Z,18.60
2023-03-21T17:44:21.620Z,19.60
2023-03-21T17:46:51.699Z,19.63
2023-03-21T17:49:19.891Z,20.38
2023-03-21T17:51:47.208Z,19.60
2023-03-21T17:54:14.424Z,20.35
2023-03-21T17:56:42.020Z,21.88
2023-03-21T17:59:14.228Z,21.38
2023-03-21T18:01:42.574Z,20.85
2023-03-21T18:04:10.923Z,20.85
2023-03-21T18:06:39.077Z,22.45
2023-03-21T18:09:11.376Z,21.63
2023-03-21T18:11:40.239Z,20.58
2023-03-21T18:14:16.181Z,22.65
2023-03-21T18:16:46.737Z,23.95
2023-03-21T18:19:14.550Z,22.35
2023-03-21T18:21:44.907Z,23.73
2023-03-21T18:24:13.204Z,22.40
2023-03-21T18:26:41.038Z,24.13
2023-03-21T18:30:08.095Z,24.35
2023-03-21T18:32:06.342Z,23.17
2023-03-21T18:34:38.752Z,24.35
2023-03-21T18:37:09.346Z,23.55
2023-03-21T18:39:38.184Z,25.25
2023-03-21T18:42:07.797Z,24.67
2023-03-21T18:44:45.546Z,23.73
2023-03-21T18:47:14.497Z,22.67
2023-03-21T18:50:13.304Z,33.90
2023-03-21T18:52:29.405Z,24.50
2023-03-21T18:54:56.558Z,23.65
2023-03-21T18:57:36.260Z,24.80
2023-03-21T19:00:17.290Z,24.08
2023-03-21T19:02:51.025Z,24.67
2023-03-21T19:05:23.461Z,28.40
2023-03-21T19:07:53.165Z,26.30
2023-03-21T19:10:23.564Z,26.38
2023-03-21T19:12:54.597Z,23.30
2023-03-21T19:15:24.115Z,24.65
2023-03-21T19:20:46.521Z,25.35
2023-03-21T19:23:14.261Z,26.30
2023-03-21T19:25:42.714Z,25.50
2023-03-21T19:28:10.044Z,25.65
2023-03-21T19:30:37.512Z,25.20
2023-03-21T19:33:05.189Z,26.25
2023-03-21T19:35:35.340Z,26.00
2023-03-21T19:38:03.608Z,25.58
2023-03-21T19:40:31.597Z,26.08
2023-03-21T19:42:58.880Z,25.85
2023-03-21T19:45:26.546Z,25.98
2023-03-21T19:47:53.901Z,26.90
2023-03-21T19:50:49.336Z,25.55
2023-03-21T19:53:08.762Z,26.52
2023-03-21T19:55:36.389Z,27.35
2023-03-21T19:58:04.136Z,29.42
2023-03-21T20:00:31.574Z,26.60
2023-03-21T20:02:58.923Z,25.27
2023-03-21T20:05:27.104Z,27.23
2023-03-21T20:07:57.191Z,25.98
2023-03-21T20:10:28.301Z,25.27
2023-03-21T20:12:56.300Z,26.83
2023-03-21T20:15:26.821Z,25.65
2023-03-21T20:17:56.104Z,26.58
2023-03-21T20:20:23.365Z,24.13
2023-03-21T20:23:06.347Z,26.48
2023-03-21T20:25:35.425Z,25.00
2023-03-21T20:28:25.551Z,26.60
2023-03-21T20:30:56.821Z,28.00
2023-03-21T20:33:25.049Z,26.67
2023-03-21T20:38:52.616Z,27.73
2023-03-21T20:44:34.333Z,26.13
2023-03-21T20:46:36.472Z,29.05
2023-03-21T20:49:06.616Z,29.30
2023-03-21T20:54:21.354Z,30.45
2023-03-21T20:56:48.882Z,29.08
2023-03-21T20:59:25.554Z,29.58
2023-03-21T21:01:54.142Z,28.17
2023-03-21T21:04:22.353Z,28.48
2023-03-21T21:06:50.341Z,29.27
2023-03-21T21:09:17.613Z,29.45
2023-03-21T21:14:32.014Z,28.05
2023-03-21T21:17:07.693Z,27.52
2023-03-21T21:19:44.689Z,29.10
2023-03-21T21:22:11.949Z,28.35
2023-03-21T21:24:39.327Z,28.15
2023-03-21T21:27:06.491Z,29.30
2023-03-21T21:29:34.472Z,29.67
2023-03-21T21:32:02.471Z,30.42
2023-03-21T21:34:30.332Z,32.05
2023-03-21T21:36:57.523Z,31.05
2023-03-21T21:39:26.436Z,31.48
2023-03-21T21:41:54.325Z,32.17
2023-03-21T21:44:21.701Z,30.30
2023-03-21T21:46:48.934Z,33.00
2023-03-21T21:49:16.424Z,31.27
2023-03-21T21:51:47.738Z,31.00
2023-03-21T21:54:18.303Z,28.77
2023-03-21T21:56:48.676Z,30.83
2023-03-21T21:59:16.226Z,26.95
2023-03-21T22:01:43.404Z,32.05
2023-03-21T22:04:11.337Z,28.50
2023-03-21T22:06:38.620Z,30.80
2023-03-21T22:09:06.965Z,30.77
2023-03-21T22:11:34.407Z,31.70
2023-03-21T22:14:02.221Z,29.45
2023-03-21T22:16:29.607Z,31.38
2023-03-21T22:18:56.980Z,29.33
2023-03-21T22:21:24.512Z,29.67
2023-03-21T22:23:51.818Z,30.05
2023-03-21T22:26:19.187Z,31.80
2023-03-21T22:28:46.505Z,27.75
2023-03-21T22:31:17.223Z,29.67
2023-03-21T22:33:45.705Z,31.73
2023-03-21T22:38:42.192Z,28.90
2023-03-21T22:41:10.929Z,29.02
2023-03-21T22:43:38.237Z,27.08
2023-03-21T22:46:06.516Z,29.13
2023-03-21T22:48:34.801Z,27.88
2023-03-21T22:51:02.216Z,31.35
2023-03-21T22:53:30.467Z,30.73
2023-03-21T22:55:57.729Z,30.27
2023-03-21T22:58:25.074Z,31.27
2023-03-21T23:00:52.451Z,28.98
2023-03-21T23:03:19.790Z,32.30
2023-03-21T23:05:47.142Z,29.58
2023-03-21T23:08:14.462Z,31.65
2023-03-21T23:10:43.884Z,27.80
2023-03-21T23:13:12.008Z,31.42
2023-03-21T23:15:39.964Z,30.88
2023-03-21T23:18:07.417Z,28.08
2023-03-21T23:20:35.086Z,32.05
2023-03-21T23:23:02.857Z,28.83
2023-03-21T23:25:30.400Z,31.17
2023-03-21T23:27:57.877Z,28.70
2023-03-21T23:30:26.203Z,27.77
2023-03-21T23:32:53.494Z,31.20
2023-03-21T23:35:21.072Z,26.67
2023-03-21T23:37:52.665Z,32.20
2023-03-21T23:40:21.236Z,27.88
2023-03-21T23:42:48.594Z,29.65
2023-03-21T23:45:16.051Z,28.83
2023-03-21T23:47:43.724Z,29.08
2023-03-21T23:50:11.606Z,29.75
2023-03-21T23:52:41.641Z,28.33
2023-03-21T23:55:09.765Z,27.60
2023-03-21T23:57:41.665Z,27.92
